createdAt,value
2023-04-13T00:00:43.765Z,8.80
2023-04-13T00:03:12.619Z,8.80
2023-04-13T00:05:39.721Z,8.90
2023-04-13T00:08:06.558Z,8.90
2023-04-13T00:10:36.725Z,8.80
2023-04-13T00:13:07.529Z,8.90
2023-04-13T00:15:36.703Z,8.90
2023-04-13T00:18:03.612Z,8.80
2023-04-13T00:20:30.321Z,8.80
2023-04-13T00:22:57.053Z,8.70
2023-04-13T00:25:24.056Z,8.70
2023-04-13T00:27:52.922Z,8.70
2023-04-13T00:30:20.232Z,8.60
2023-04-13T00:32:47.131Z,8.60
2023-04-13T00:35:19.257Z,8.50
2023-04-13T00:37:47.279Z,8.60
2023-04-13T00:40:15.878Z,8.50
2023-04-13T00:42:46.143Z,8.50
2023-04-13T00:45:13.775Z,8.50
2023-04-13T00:47:46.622Z,8.50
2023-04-13T00:50:13.942Z,8.50
2023-04-13T00:52:40.955Z,8.50
2023-04-13T00:55:07.899Z,8.60
2023-04-13T00:57:35.189Z,8.60
2023-04-13T01:00:06.441Z,8.60
2023-04-13T01:02:34.218Z,8.60
2023-04-13T01:05:02.249Z,8.60
2023-04-13T01:07:47.534Z,8.60
2023-04-13T01:10:17.331Z,8.60
2023-04-13T01:13:06.972Z,8.60
2023-04-13T01:15:37.905Z,8.60
2023-04-13T01:18:05.103Z,8.60
2023-04-13T01:20:32.570Z,8.60
2023-04-13T01:23:04.443Z,8.60
2023-04-13T01:25:57.763Z,8.60
2023-04-13T01:28:25.340Z,8.60
2023-04-13T01:30:53.204Z,8.60
2023-04-13T01:33:20.796Z,8.60
2023-04-13T01:35:47.756Z,8.60
2023-04-13T01:38:14.412Z,8.60
2023-04-13T01:40:41.411Z,8.60
2023-04-13T01:43:08.692Z,8.50
2023-04-13T01:45:47.615Z,8.40
2023-04-13T01:48:18.350Z,8.40
2023-04-13T01:50:48.451Z,8.30
2023-04-13T01:53:17.693Z,8.30
2023-04-13T01:55:44.740Z,8.30
2023-04-13T01:58:14.226Z,8.30
2023-04-13T02:00:41.531Z,8.30
2023-04-13T02:03:09.763Z,8.30
2023-04-13T02:05:38.323Z,8.30
2023-04-13T02:08:05.220Z,8.40
2023-04-13T02:10:32.359Z,8.40
2023-04-13T02:12:59.154Z,8.30
2023-04-13T02:15:26.736Z,8.20
2023-04-13T02:17:53.848Z,8.20
2023-04-13T02:20:20.767Z,8.20
2023-04-13T02:22:48.057Z,8.30
2023-04-13T02:25:15.691Z,8.30
2023-04-13T02:27:42.863Z,8.20
2023-04-13T02:30:09.873Z,8.10
2023-04-13T02:32:39.529Z,8.20
2023-04-13T02:35:09.089Z,8.20
2023-04-13T02:37:39.790Z,8.20
2023-04-13T02:40:08.896Z,8.10
2023-04-13T02:42:36.086Z,8.10
2023-04-13T02:45:03.044Z,8.00
2023-04-13T02:47:29.700Z,7.90
2023-04-13T02:49:56.954Z,7.90
2023-04-13T02:52:24.175Z,7.80
2023-04-13T02:54:54.519Z,7.80
2023-04-13T02:57:22.388Z,7.90
2023-04-13T02:59:50.692Z,7.80
2023-04-13T03:02:17.963Z,7.80
2023-04-13T03:04:45.519Z,7.80
2023-04-13T03:07:14.426Z,7.70
2023-04-13T03:09:41.523Z,7.50
2023-04-13T03:12:08.261Z,7.50
2023-04-13T03:14:36.698Z,7.40
2023-04-13T03:17:04.383Z,7.30
2023-04-13T03:19:31.752Z,7.20
2023-04-13T03:21:58.798Z,7.20
2023-04-13T03:24:28.891Z,7.30
2023-04-13T03:26:57.046Z,7.20
2023-04-13T03:29:24.402Z,7.20
2023-04-13T03:31:51.480Z,7.20
2023-04-13T03:34:18.397Z,7.20
2023-04-13T03:36:45.860Z,7.20
2023-04-13T03:39:12.548Z,7.20
2023-04-13T03:41:39.214Z,7.10
2023-04-13T03:44:06.053Z,7.30
2023-04-13T03:46:33.246Z,7.20
2023-04-13T03:48:59.975Z,7.20
2023-04-13T03:51:27.787Z,7.20
2023-04-13T03:53:55.027Z,7.10
2023-04-13T03:56:21.624Z,7.20
2023-04-13T03:58:48.244Z,7.10
2023-04-13T04:01:15.021Z,7.10
2023-04-13T04:03:41.791Z,7.00
2023-04-13T04:06:08.838Z,7.00
2023-04-13T04:08:35.797Z,7.00
2023-04-13T04:11:02.865Z,7.00
2023-04-13T04:13:29.521Z,7.10
2023-04-13T04:15:56.864Z,7.10
2023-04-13T04:18:23.632Z,7.00
2023-04-13T04:20:50.489Z,7.00
2023-04-13T04:23:19.801Z,7.00
2023-04-13T04:25:46.828Z,7.00
2023-04-13T04:28:17.907Z,6.90
2023-04-13T04:30:45.820Z,6.90
2023-04-13T04:33:12.474Z,7.00
2023-04-13T04:35:43.232Z,7.00
2023-04-13T04:38:09.915Z,7.10
2023-04-13T04:40:36.618Z,7.10
2023-04-13T04:43:04.900Z,7.10
2023-04-13T04:45:32.917Z,7.10
2023-04-13T04:47:59.934Z,7.10
2023-04-13T04:50:26.652Z,7.10
2023-04-13T04:52:53.478Z,7.10
2023-04-13T04:55:20.224Z,7.10
2023-04-13T04:57:46.870Z,7.20
2023-04-13T05:00:16.801Z,7.20
2023-04-13T05:02:44.365Z,7.20
2023-04-13T05:05:11.931Z,7.20
2023-04-13T05:07:38.700Z,7.20
2023-04-13T05:10:07.075Z,7.20
2023-04-13T05:12:35.328Z,7.20
2023-04-13T05:15:04.133Z,7.20
2023-04-13T05:17:30.828Z,7.10
2023-04-13T05:19:57.483Z,7.10
2023-04-13T05:22:24.104Z,7.10
2023-04-13T05:24:50.797Z,7.10
2023-04-13T05:27:17.502Z,7.10
2023-04-13T05:29:46.942Z,7.10
2023-04-13T05:32:14.243Z,7.10
2023-04-13T05:34:41.026Z,7.20
2023-04-13T05:37:09.907Z,7.10
2023-04-13T05:39:36.544Z,7.20
2023-04-13T05:42:03.244Z,7.10
2023-04-13T05:44:29.881Z,7.10
2023-04-13T05:46:56.971Z,7.20
2023-04-13T05:49:23.646Z,7.20
2023-04-13T05:51:51.421Z,7.20
2023-04-13T05:54:18.561Z,7.20
2023-04-13T05:56:45.404Z,7.30
2023-04-13T05:59:12.409Z,7.30
2023-04-13T06:01:39.069Z,7.30
2023-04-13T06:04:06.002Z,7.30
2023-04-13T06:06:32.907Z,7.40
2023-04-13T06:08:59.779Z,7.40
2023-04-13T06:11:27.906Z,7.50
2023-04-13T06:13:54.619Z,7.40
2023-04-13T06:16:22.936Z,7.50
2023-04-13T06:18:52.700Z,7.50
2023-04-13T06:21:19.410Z,7.50
2023-04-13T06:23:50.621Z,7.50
2023-04-13T06:26:17.954Z,7.50
2023-04-13T06:28:44.713Z,7.60
2023-04-13T06:31:13.765Z,7.60
2023-04-13T06:33:40.819Z,7.70
2023-04-13T06:36:08.156Z,7.70
2023-04-13T06:38:34.915Z,7.80
2023-04-13T06:41:02.308Z,7.90
2023-04-13T06:43:29.939Z,7.90
2023-04-13T06:46:03.772Z,8.00
2023-04-13T06:48:30.821Z,8.00
2023-04-13T06:51:00.997Z,8.10
2023-04-13T06:53:27.671Z,8.10
2023-04-13T06:55:54.368Z,8.20
2023-04-13T06:58:22.005Z,8.30
2023-04-13T07:00:48.731Z,8.30
2023-04-13T07:03:15.902Z,8.40
2023-04-13T07:05:44.069Z,8.40
2023-04-13T07:08:10.799Z,8.30
2023-04-13T07:10:39.487Z,8.30
2023-04-13T07:13:11.487Z,8.30
2023-04-13T07:15:38.281Z,8.40
2023-04-13T07:18:05.030Z,8.40
2023-04-13T07:20:31.815Z,8.40
2023-04-13T07:22:58.575Z,8.40
2023-04-13T07:25:25.450Z,8.50
2023-04-13T07:27:52.081Z,8.60
2023-04-13T07:30:18.847Z,8.60
2023-04-13T07:32:45.506Z,8.70
2023-04-13T07:35:12.213Z,8.80
2023-04-13T07:37:38.868Z,8.90
2023-04-13T07:40:06.763Z,8.90
2023-04-13T07:42:33.382Z,9.10
2023-04-13T07:45:00.016Z,9.20
2023-04-13T07:47:26.787Z,9.20
2023-04-13T07:49:54.191Z,9.20
2023-04-13T07:52:21.186Z,9.20
2023-04-13T07:54:47.903Z,9.20
2023-04-13T07:57:14.815Z,9.20
2023-04-13T07:59:41.569Z,9.30
2023-04-13T08:02:08.319Z,9.30
2023-04-13T08:04:36.097Z,9.40
2023-04-13T08:07:05.928Z,9.50
2023-04-13T08:09:39.041Z,9.60
2023-04-13T08:12:07.906Z,9.70
2023-04-13T08:14:34.782Z,9.80
2023-04-13T08:17:06.363Z,9.90
2023-04-13T08:19:33.829Z,9.90
2023-04-13T08:22:00.422Z,9.90
2023-04-13T08:24:27.528Z,9.90
2023-04-13T08:26:58.742Z,9.90
2023-04-13T08:29:28.899Z,9.90
2023-04-13T08:31:56.964Z,9.90
2023-04-13T08:34:23.675Z,10.00
2023-04-13T08:36:50.943Z,10.10
2023-04-13T08:39:17.838Z,10.10
2023-04-13T08:41:50.436Z,10.10
2023-04-13T08:44:17.552Z,10.20
2023-04-13T08:46:45.418Z,10.10
2023-04-13T08:49:12.664Z,10.00
2023-04-13T08:51:41.992Z,10.00
2023-04-13T08:54:08.876Z,10.10
2023-04-13T08:56:45.183Z,10.30
2023-04-13T08:59:13.294Z,10.40
2023-04-13T09:01:40.581Z,10.50
2023-04-13T09:04:08.525Z,10.60
2023-04-13T09:06:37.536Z,10.60
2023-04-13T09:09:07.349Z,10.70
2023-04-13T09:11:34.009Z,10.80
2023-04-13T09:14:01.351Z,11.00
2023-04-13T09:16:28.266Z,11.00
2023-04-13T09:18:55.819Z,11.10
2023-04-13T09:21:23.042Z,11.10
2023-04-13T09:23:56.924Z,11.10
2023-04-13T09:26:23.689Z,11.20
2023-04-13T09:28:51.873Z,11.30
2023-04-13T09:31:19.412Z,11.40
2023-04-13T09:33:47.067Z,11.40
2023-04-13T09:36:15.216Z,11.20
2023-04-13T09:38:46.633Z,11.10
2023-04-13T09:41:13.332Z,10.90
2023-04-13T09:43:40.318Z,10.80
2023-04-13T09:46:14.147Z,10.70
2023-04-13T09:48:41.313Z,10.60
2023-04-13T09:51:08.708Z,10.70
2023-04-13T09:53:49.249Z,10.90
2023-04-13T09:56:17.135Z,11.00
2023-04-13T09:58:45.131Z,11.10
2023-04-13T10:01:12.304Z,11.20
2023-04-13T10:03:39.032Z,11.30
2023-04-13T10:06:07.713Z,11.40
2023-04-13T10:08:38.658Z,11.40
2023-04-13T10:11:15.305Z,11.50
2023-04-13T10:13:51.601Z,11.40
2023-04-13T10:16:27.518Z,11.40
2023-04-13T10:19:03.144Z,11.50
2023-04-13T10:21:33.626Z,11.60
2023-04-13T10:24:00.527Z,11.70
2023-04-13T10:26:31.246Z,11.80
2023-04-13T10:28:59.284Z,11.90
2023-04-13T10:31:43.566Z,12.00
2023-04-13T10:34:10.751Z,11.90
2023-04-13T10:36:38.406Z,11.70
2023-04-13T10:39:05.080Z,11.50
2023-04-13T10:41:31.697Z,11.30
2023-04-13T10:44:05.571Z,11.10
2023-04-13T10:46:39.634Z,10.90
2023-04-13T10:49:06.948Z,10.80
2023-04-13T10:51:39.022Z,10.70
2023-04-13T10:54:06.402Z,10.70
2023-04-13T10:56:33.952Z,10.60
2023-04-13T10:59:00.880Z,10.60
2023-04-13T11:01:27.755Z,10.60
2023-04-13T11:04:04.579Z,10.60
2023-04-13T11:06:37.778Z,10.70
2023-04-13T11:09:09.811Z,10.90
2023-04-13T11:11:36.950Z,11.10
2023-04-13T11:14:03.914Z,11.20
2023-04-13T11:16:30.877Z,11.40
2023-04-13T11:19:02.414Z,11.50
2023-04-13T11:21:29.832Z,11.50
2023-04-13T11:23:56.439Z,11.50
2023-04-13T11:26:34.215Z,11.60
2023-04-13T11:29:02.219Z,11.70
2023-04-13T11:31:39.102Z,11.60
2023-04-13T11:34:13.075Z,11.60
2023-04-13T11:36:40.483Z,11.60
2023-04-13T11:39:09.641Z,11.70
2023-04-13T11:41:40.456Z,11.80
2023-04-13T11:44:07.463Z,11.60
2023-04-13T11:46:34.216Z,11.60
2023-04-13T11:49:01.116Z,11.60
2023-04-13T11:51:28.219Z,11.70
2023-04-13T11:53:54.993Z,11.80
2023-04-13T11:56:21.783Z,11.90
2023-04-13T11:58:50.112Z,11.80
2023-04-13T12:01:25.168Z,11.80
2023-04-13T12:04:04.769Z,11.70
2023-04-13T12:06:41.116Z,11.60
2023-04-13T12:09:13.469Z,11.50
2023-04-13T12:11:46.365Z,11.30
2023-04-13T12:14:46.000Z,11.00
2023-04-13T12:17:34.751Z,10.90
2023-04-13T12:19:58.294Z,10.70
2023-04-13T12:22:50.975Z,10.60
2023-04-13T12:25:23.973Z,10.60
2023-04-13T12:27:52.020Z,10.40
2023-04-13T12:30:19.721Z,10.30
2023-04-13T12:32:53.951Z,10.20
2023-04-13T12:35:20.654Z,10.10
2023-04-13T12:37:47.963Z,9.90
2023-04-13T12:40:15.659Z,9.80
2023-04-13T12:42:42.970Z,9.60
2023-04-13T12:45:10.271Z,9.00
2023-04-13T12:47:37.343Z,8.50
2023-04-13T12:50:08.176Z,8.20
2023-04-13T12:52:35.352Z,8.30
2023-04-13T12:55:02.347Z,8.40
2023-04-13T12:57:29.680Z,8.50
2023-04-13T12:59:56.707Z,8.60
2023-04-13T13:02:24.282Z,8.60
2023-04-13T13:04:51.778Z,8.60
2023-04-13T13:07:19.101Z,8.60
2023-04-13T13:09:45.979Z,8.60
2023-04-13T13:12:12.776Z,8.70
2023-04-13T13:14:39.424Z,8.80
2023-04-13T13:17:06.253Z,8.80
2023-04-13T13:19:32.895Z,8.90
2023-04-13T13:22:00.342Z,9.00
2023-04-13T13:24:27.166Z,9.10
2023-04-13T13:27:24.465Z,9.20
2023-04-13T13:29:41.427Z,9.30
2023-04-13T13:32:09.063Z,9.40
2023-04-13T13:34:35.956Z,9.50
2023-04-13T13:37:03.172Z,9.60
2023-04-13T13:39:29.882Z,9.60
2023-04-13T13:41:57.248Z,9.80
2023-04-13T13:44:24.225Z,9.90
2023-04-13T13:46:50.931Z,10.00
2023-04-13T13:49:17.559Z,10.10
2023-04-13T13:51:44.213Z,10.10
2023-04-13T13:54:10.811Z,10.00
2023-04-13T13:56:37.563Z,10.00
2023-04-13T13:59:04.690Z,10.00
2023-04-13T14:01:31.445Z,10.00
2023-04-13T14:03:59.337Z,10.10
2023-04-13T14:06:27.810Z,10.10
2023-04-13T14:08:56.027Z,10.10
2023-04-13T14:11:22.836Z,10.10
2023-04-13T14:13:49.678Z,10.00
2023-04-13T14:16:16.696Z,9.90
2023-04-13T14:18:43.349Z,9.70
2023-04-13T14:21:10.761Z,9.70
2023-04-13T14:23:38.162Z,9.80
2023-04-13T14:26:04.858Z,9.80
2023-04-13T14:28:32.632Z,9.80
2023-04-13T14:30:59.403Z,10.00
2023-04-13T14:33:26.366Z,10.10
2023-04-13T14:35:54.125Z,10.20
2023-04-13T14:38:22.847Z,10.20
2023-04-13T14:40:49.750Z,10.30
2023-04-13T14:43:16.651Z,10.40
2023-04-13T14:45:43.313Z,10.40
2023-04-13T14:48:10.024Z,10.40
2023-04-13T14:50:39.614Z,10.40
2023-04-13T14:53:09.355Z,10.50
2023-04-13T14:55:36.217Z,10.40
2023-04-13T14:58:03.355Z,10.30
2023-04-13T15:00:39.309Z,10.30
2023-04-13T15:03:07.807Z,10.20
2023-04-13T15:05:38.821Z,10.10
2023-04-13T15:08:06.994Z,9.90
2023-04-13T15:10:36.754Z,9.80
2023-04-13T15:13:04.015Z,9.90
2023-04-13T15:15:32.379Z,9.90
2023-04-13T15:18:01.817Z,9.90
2023-04-13T15:20:29.760Z,9.90
2023-04-13T15:22:57.004Z,9.90
2023-04-13T15:25:24.373Z,10.00
2023-04-13T15:27:51.766Z,10.00
2023-04-13T15:30:25.483Z,10.00
2023-04-13T15:32:52.287Z,9.90
2023-04-13T15:35:19.089Z,9.90
2023-04-13T15:37:45.845Z,9.90
2023-04-13T15:40:12.631Z,9.80
2023-04-13T15:42:39.254Z,9.70
2023-04-13T15:45:07.097Z,9.60
2023-04-13T15:47:33.735Z,9.50
2023-04-13T15:50:00.473Z,9.40
2023-04-13T15:52:27.144Z,9.30
2023-04-13T15:54:54.177Z,9.30
2023-04-13T15:57:20.827Z,9.20
2023-04-13T15:59:48.570Z,9.20
2023-04-13T16:02:15.311Z,9.10
2023-04-13T16:04:42.208Z,9.00
2023-04-13T16:07:14.198Z,9.00
2023-04-13T16:09:44.179Z,8.90
2023-04-13T16:12:11.265Z,8.80
2023-04-13T16:14:45.529Z,8.70
2023-04-13T16:17:14.754Z,8.60
2023-04-13T16:19:41.451Z,8.50
2023-04-13T16:22:10.982Z,8.50
2023-04-13T16:24:37.877Z,8.40
2023-04-13T16:27:04.603Z,8.40
2023-04-13T16:29:32.397Z,8.40
2023-04-13T16:31:59.094Z,8.30
2023-04-13T16:34:27.771Z,8.30
2023-04-13T16:36:54.486Z,8.30
2023-04-13T16:39:21.888Z,8.30
2023-04-13T16:41:48.691Z,8.20
2023-04-13T16:44:15.502Z,8.20
2023-04-13T16:46:42.251Z,8.20
2023-04-13T16:49:09.114Z,8.10
2023-04-13T16:51:35.878Z,8.00
2023-04-13T16:54:03.638Z,7.90
2023-04-13T16:56:30.756Z,7.90
2023-04-13T16:58:57.734Z,7.90
2023-04-13T17:01:25.587Z,7.90
2023-04-13T17:03:53.935Z,7.80
2023-04-13T17:06:21.413Z,7.70
2023-04-13T17:08:48.184Z,7.70
2023-04-13T17:11:14.878Z,7.70
2023-04-13T17:13:41.683Z,7.80
2023-04-13T17:16:08.831Z,7.80
2023-04-13T17:18:35.721Z,7.80
2023-04-13T17:21:02.410Z,7.80
2023-04-13T17:23:29.047Z,7.80
2023-04-13T17:25:56.671Z,7.70
2023-04-13T17:28:23.805Z,7.70
2023-04-13T17:30:50.482Z,7.70
2023-04-13T17:33:17.212Z,7.70
2023-04-13T17:35:43.832Z,7.70
2023-04-13T17:38:10.443Z,7.60
2023-04-13T17:40:37.621Z,7.60
2023-04-13T17:43:07.714Z,7.60
2023-04-13T17:45:39.199Z,7.50
2023-04-13T17:48:07.325Z,7.50
2023-04-13T17:50:35.165Z,7.40
2023-04-13T17:53:06.423Z,7.30
2023-04-13T17:55:35.740Z,7.30
2023-04-13T17:58:02.462Z,7.30
2023-04-13T18:00:29.210Z,7.30
2023-04-13T18:02:58.176Z,7.30
2023-04-13T18:05:25.814Z,7.30
2023-04-13T18:07:52.544Z,7.30
2023-04-13T18:10:25.845Z,7.30
2023-04-13T18:15:52.142Z,7.30
2023-04-13T18:18:18.999Z,7.20
2023-04-13T18:20:46.011Z,7.20
2023-04-13T18:23:12.765Z,7.20
2023-04-13T18:25:39.621Z,7.10
2023-04-13T18:28:06.319Z,7.10
2023-04-13T18:36:27.657Z,7.10
2023-04-13T18:38:54.923Z,7.00
2023-04-13T18:41:23.988Z,6.90
2023-04-13T18:41:25.378Z,7.10
2023-04-13T18:43:50.690Z,6.90
2023-04-13T18:59:38.206Z,6.80
2023-04-13T19:12:10.458Z,6.80
2023-04-13T19:14:54.222Z,6.80
2023-04-13T19:20:11.106Z,6.80
2023-04-13T19:22:49.199Z,6.80
2023-04-13T19:25:42.378Z,6.80
2023-04-13T19:28:06.363Z,6.80
2023-04-13T19:36:17.730Z,6.80
2023-04-13T19:38:47.511Z,6.80
2023-04-13T19:41:30.284Z,6.80
2023-04-13T19:44:12.275Z,6.80
2023-04-13T19:46:44.210Z,6.80
2023-04-13T19:51:59.655Z,6.80
2023-04-13T19:54:48.231Z,6.70
2023-04-13T19:57:28.974Z,6.70
2023-04-13T19:59:57.062Z,6.70
2023-04-13T20:02:41.687Z,6.70
2023-04-13T20:05:11.050Z,6.70
2023-04-13T20:07:45.261Z,6.70
2023-04-13T20:10:17.825Z,6.60
2023-04-13T20:12:47.428Z,6.60
2023-04-13T20:15:26.504Z,6.60
2023-04-13T20:18:42.133Z,6.60
2023-04-13T20:20:47.430Z,6.60
2023-04-13T20:23:21.397Z,6.60
2023-04-13T20:25:51.556Z,6.60
2023-04-13T20:28:18.350Z,6.60
2023-04-13T20:30:46.232Z,6.60
2023-04-13T20:33:13.003Z,6.60
2023-04-13T20:35:42.776Z,6.60
2023-04-13T20:38:09.926Z,6.60
2023-04-13T20:40:37.488Z,6.60
2023-04-13T20:43:06.261Z,6.50
2023-04-13T20:45:36.403Z,6.50
2023-04-13T20:48:48.429Z,6.50
2023-04-13T20:50:50.384Z,6.50
2023-04-13T20:53:17.618Z,6.50
2023-04-13T20:55:44.691Z,6.50
2023-04-13T20:58:11.421Z,6.50
2023-04-13T21:00:39.241Z,6.60
2023-04-13T21:03:08.899Z,6.50
2023-04-13T21:05:35.942Z,6.60
2023-04-13T21:08:04.661Z,6.60
2023-04-13T21:10:31.386Z,6.60
2023-04-13T21:12:58.250Z,6.60
2023-04-13T21:15:24.940Z,6.60
2023-04-13T21:17:51.807Z,6.50
2023-04-13T21:20:18.566Z,6.50
2023-04-13T21:22:45.327Z,6.50
2023-04-13T21:25:12.007Z,6.40
2023-04-13T21:27:38.714Z,6.40
2023-04-13T21:30:05.816Z,6.30
2023-04-13T21:32:32.821Z,6.20
2023-04-13T21:35:00.390Z,6.10
2023-04-13T21:37:28.249Z,6.10
2023-04-13T21:39:55.337Z,6.20
2023-04-13T21:42:22.770Z,6.30
2023-04-13T21:44:49.619Z,6.30
2023-04-13T21:47:16.254Z,6.20
2023-04-13T21:49:43.220Z,6.20
2023-04-13T21:52:09.969Z,6.10
2023-04-13T21:54:36.951Z,6.20
2023-04-13T21:57:04.300Z,6.20
2023-04-13T21:59:30.938Z,6.20
2023-04-13T22:01:57.796Z,6.20
2023-04-13T22:04:24.716Z,6.20
2023-04-13T22:06:51.407Z,6.20
2023-04-13T22:09:18.016Z,6.20
2023-04-13T22:11:44.699Z,6.10
2023-04-13T22:14:15.379Z,6.10
2023-04-13T22:16:42.042Z,6.20
2023-04-13T22:19:09.442Z,6.10
2023-04-13T22:21:37.075Z,6.10
2023-04-13T22:24:03.878Z,6.10
2023-04-13T22:26:30.622Z,6.00
2023-04-13T22:28:57.446Z,6.00
2023-04-13T22:31:24.230Z,5.90
2023-04-13T22:33:50.937Z,5.80
2023-04-13T22:36:19.509Z,5.80
2023-04-13T22:38:46.897Z,5.80
2023-04-13T22:41:13.538Z,5.70
2023-04-13T22:43:40.338Z,5.70
2023-04-13T22:46:07.852Z,5.60
2023-04-13T22:48:34.503Z,5.60
2023-04-13T22:51:01.426Z,5.50
2023-04-13T22:53:28.193Z,5.50
2023-04-13T22:55:54.905Z,5.50
2023-04-13T22:58:21.513Z,5.50
2023-04-13T23:00:48.123Z,5.50
2023-04-13T23:03:14.981Z,5.50
2023-04-13T23:05:41.691Z,5.50
2023-04-13T23:08:08.263Z,5.50
2023-04-13T23:10:34.879Z,5.50
2023-04-13T23:13:01.603Z,5.60
2023-04-13T23:15:28.261Z,5.60
2023-04-13T23:17:55.370Z,5.70
2023-04-13T23:20:22.321Z,5.70
2023-04-13T23:22:49.523Z,5.60
2023-04-13T23:25:16.233Z,5.50
2023-04-13T23:27:42.868Z,5.40
2023-04-13T23:30:09.680Z,5.40
2023-04-13T23:32:36.375Z,5.40
2023-04-13T23:35:03.099Z,5.40
2023-04-13T23:37:29.828Z,5.40
2023-04-13T23:39:56.821Z,5.30
2023-04-13T23:42:23.517Z,5.30
2023-04-13T23:44:50.305Z,5.40
2023-04-13T23:47:17.231Z,5.40
2023-04-13T23:49:43.868Z,5.40
2023-04-13T23:52:10.573Z,5.30
2023-04-13T23:54:37.201Z,5.20
2023-04-13T23:57:03.860Z,5.20
2023-04-13T23:59:30.515Z,5.20
